createdAt,value
2018-07-19T00:01:34.112Z,65.83
2018-07-19T00:04:02.393Z,65.92
2018-07-19T00:06:30.718Z,65.40
2018-07-19T00:08:59.078Z,65.77
2018-07-19T00:11:28.441Z,65.38
2018-07-19T00:13:56.748Z,65.52
2018-07-19T00:16:25.065Z,66.03
2018-07-19T00:18:53.382Z,66.24
2018-07-19T00:21:21.668Z,66.58
2018-07-19T00:23:49.977Z,66.32
2018-07-19T00:26:18.257Z,65.80
2018-07-19T00:28:46.680Z,65.85
2018-07-19T00:31:14.949Z,65.89
2018-07-19T00:33:43.277Z,66.17
2018-07-19T00:36:12.700Z,66.19
2018-07-19T00:38:41.122Z,66.24
2018-07-19T00:41:09.433Z,67.11
2018-07-19T00:43:37.890Z,66.53
2018-07-19T00:46:06.166Z,66.66
2018-07-19T00:48:34.552Z,66.98
2018-07-19T00:51:02.849Z,67.10
2018-07-19T00:53:31.181Z,67.20
2018-07-19T00:55:59.496Z,66.89
2018-07-19T00:58:27.905Z,67.24
2018-07-19T01:00:56.176Z,66.94
2018-07-19T01:03:24.478Z,66.62
2018-07-19T01:05:52.769Z,66.93
2018-07-19T01:08:21.034Z,66.43
2018-07-19T01:10:49.328Z,66.60
2018-07-19T01:13:17.613Z,67.29
2018-07-19T01:15:46.043Z,67.36
2018-07-19T01:18:14.333Z,67.38
2018-07-19T01:20:42.632Z,67.36
2018-07-19T01:23:11.196Z,67.76
2018-07-19T01:25:39.528Z,68.36
2018-07-19T01:28:07.819Z,68.70
2018-07-19T01:30:36.160Z,68.83
2018-07-19T01:33:04.445Z,69.60
2018-07-19T01:35:32.817Z,69.96
2018-07-19T01:38:01.092Z,70.07
2018-07-19T01:40:29.397Z,70.58
2018-07-19T01:42:57.670Z,70.91
2018-07-19T01:45:26.009Z,70.52
2018-07-19T01:47:54.345Z,70.47
2018-07-19T01:50:22.691Z,71.70
2018-07-19T01:52:50.964Z,72.10
2018-07-19T01:55:19.256Z,72.08
2018-07-19T01:57:47.550Z,71.61
2018-07-19T02:00:15.883Z,72.05
2018-07-19T02:02:44.121Z,72.44
2018-07-19T02:05:12.409Z,71.64
2018-07-19T02:07:40.698Z,72.43
2018-07-19T02:10:09.001Z,73.06
2018-07-19T02:12:37.440Z,72.81
2018-07-19T02:15:06.611Z,73.24
2018-07-19T02:17:34.945Z,74.14
2018-07-19T02:20:03.232Z,74.10
2018-07-19T02:22:31.573Z,74.46
2018-07-19T02:24:59.848Z,74.50
2018-07-19T02:27:28.151Z,75.74
2018-07-19T02:29:56.430Z,75.65
2018-07-19T02:32:24.732Z,75.45
2018-07-19T02:34:53.023Z,75.64
2018-07-19T02:37:21.504Z,76.73
2018-07-19T02:39:49.776Z,76.66
2018-07-19T02:42:18.088Z,77.02
2018-07-19T02:44:46.369Z,77.39
2018-07-19T02:47:14.657Z,76.59
2018-07-19T02:49:42.929Z,76.57
2018-07-19T02:52:11.209Z,76.46
2018-07-19T02:54:39.516Z,76.89
2018-07-19T02:57:08.092Z,77.01
2018-07-19T02:59:36.380Z,77.14
2018-07-19T03:02:04.818Z,78.53
2018-07-19T03:04:33.040Z,77.77
2018-07-19T03:07:01.425Z,78.08
2018-07-19T03:09:29.706Z,77.49
2018-07-19T03:11:57.964Z,77.40
2018-07-19T03:14:26.384Z,78.19
2018-07-19T03:16:54.657Z,77.36
2018-07-19T03:19:22.930Z,77.59
2018-07-19T03:21:51.170Z,77.71
2018-07-19T03:24:19.484Z,77.16
2018-07-19T03:26:47.737Z,78.13
2018-07-19T03:29:16.029Z,78.01
2018-07-19T03:31:44.293Z,76.93
2018-07-19T03:34:12.568Z,77.45
2018-07-19T03:36:41.665Z,77.32
2018-07-19T03:39:10.921Z,76.97
2018-07-19T03:41:39.197Z,76.85
2018-07-19T03:44:07.655Z,77.58
2018-07-19T03:46:36.364Z,78.74
2018-07-19T03:49:04.613Z,78.62
2018-07-19T03:51:32.902Z,79.44
2018-07-19T03:54:01.165Z,80.15
2018-07-19T03:56:29.449Z,79.42
2018-07-19T03:58:57.704Z,80.27
2018-07-19T04:01:25.981Z,80.07
2018-07-19T04:03:54.229Z,80.80
2018-07-19T04:06:22.512Z,80.91
2018-07-19T04:08:50.768Z,80.18
2018-07-19T04:11:19.055Z,79.73
2018-07-19T04:13:47.309Z,79.82
2018-07-19T04:16:15.633Z,79.70
2018-07-19T04:18:43.892Z,79.02
2018-07-19T04:21:12.180Z,78.66
2018-07-19T04:23:40.416Z,79.01
2018-07-19T04:26:08.709Z,79.91
2018-07-19T04:28:36.976Z,80.22
2018-07-19T04:31:05.257Z,79.97
2018-07-19T04:33:33.552Z,79.03
2018-07-19T04:36:01.801Z,78.21
2018-07-19T04:38:30.076Z,77.90
2018-07-19T04:40:58.577Z,77.21
2018-07-19T04:43:26.847Z,76.97
2018-07-19T04:45:55.105Z,76.18
2018-07-19T04:48:23.405Z,75.39
2018-07-19T04:50:51.636Z,76.41
2018-07-19T04:53:19.936Z,75.07
2018-07-19T04:55:48.216Z,74.24
2018-07-19T04:58:16.492Z,73.43
2018-07-19T05:00:44.733Z,73.26
2018-07-19T05:03:13.040Z,71.75
2018-07-19T05:05:41.300Z,71.19
2018-07-19T05:08:09.594Z,69.57
2018-07-19T05:10:37.856Z,69.81
2018-07-19T05:13:06.189Z,69.11
2018-07-19T05:15:34.524Z,70.54
2018-07-19T05:18:03.085Z,71.83
2018-07-19T05:20:31.373Z,70.91
2018-07-19T05:23:00.766Z,71.87
2018-07-19T05:25:29.031Z,72.01
2018-07-19T05:27:57.304Z,71.02
2018-07-19T05:30:25.604Z,70.29
2018-07-19T05:32:53.917Z,70.04
2018-07-19T05:35:22.651Z,70.94
2018-07-19T05:37:50.932Z,70.02
